sensor_id;sensor_type;location;lat;lon;timestamp;P1;durP1;ratioP1;P2;durP2;ratioP2
79346;SDS011;68815;48.810;44.482;2023-07-08T00:01:22;9.2;;;4.5;;
79346;SDS011;68815;48.810;44.482;2023-07-08T00:04:23;9.7;;;4.6;;
79346;SDS011;68815;48.810;44.482;2023-07-08T00:07:25;8.7;;;4.5;;
79346;SDS011;68815;48.810;44.482;2023-07-08T00:10:27;8.5;;;4.6;;
79346;SDS011;68815;48.810;44.482;2023-07-08T00:13:29;9.2;;;4.6;;
79346;SDS011;68815;48.810;44.482;2023-07-08T00:16:30;10.9;;;4.6;;
79346;SDS011;68815;48.810;44.482;2023-07-08T00:19:32;7.9;;;4.4;;
79346;SDS011;68815;48.810;44.482;2023-07-08T00:22:33;11;;;4.5;;
79346;SDS011;68815;48.810;44.482;2023-07-08T00:25:35;13.1;;;4.8;;
79346;SDS011;68815;48.810;44.482;2023-07-08T00:28:36;9.3;;;4.5;;
79346;SDS011;68815;48.810;44.482;2023-07-08T00:31:38;9.4;;;4.4;;
79346;SDS011;68815;48.810;44.482;2023-07-08T00:34:39;9.7;;;4.7;;
79346;SDS011;68815;48.810;44.482;2023-07-08T00:37:41;10.2;;;5;;
79346;SDS011;68815;48.810;44.482;2023-07-08T00:40:49;11.5;;;4.6;;
79346;SDS011;68815;48.810;44.482;2023-07-08T00:43:52;8.5;;;4.5;;
79346;SDS011;68815;48.810;44.482;2023-07-08T00:46:57;10;;;4.9;;
79346;SDS011;68815;48.810;44.482;2023-07-08T00:50:04;8.4;;;4.6;;
79346;SDS011;68815;48.810;44.482;2023-07-08T00:56:25;8.8;;;5;;
79346;SDS011;68815;48.810;44.482;2023-07-08T00:59:38;11;;;4.8;;
79346;SDS011;68815;48.810;44.482;2023-07-08T01:02:46;10.8;;;4.8;;
79346;SDS011;68815;48.810;44.482;2023-07-08T01:05:51;11.7;;;5;;
79346;SDS011;68815;48.810;44.482;2023-07-08T01:08:52;9;;;4.7;;
79346;SDS011;68815;48.810;44.482;2023-07-08T01:11:54;9.3;;;4.7;;
79346;SDS011;68815;48.810;44.482;2023-07-08T01:14:58;10.3;;;4.8;;
79346;SDS011;68815;48.810;44.482;2023-07-08T01:18:02;9.2;;;4.6;;
79346;SDS011;68815;48.810;44.482;2023-07-08T01:21:04;9.3;;;4.6;;
79346;SDS011;68815;48.810;44.482;2023-07-08T01:24:23;8.9;;;4.5;;
79346;SDS011;68815;48.810;44.482;2023-07-08T01:27:24;7.6;;;4.1;;
79346;SDS011;68815;48.810;44.482;2023-07-08T01:30:26;9.3;;;4.5;;
79346;SDS011;68815;48.810;44.482;2023-07-08T01:33:29;9;;;4.4;;
79346;SDS011;68815;48.810;44.482;2023-07-08T01:36:31;8;;;4.5;;
79346;SDS011;68815;48.810;44.482;2023-07-08T01:39:38;8.8;;;4.2;;
79346;SDS011;68815;48.810;44.482;2023-07-08T01:42:40;9.4;;;4.3;;
79346;SDS011;68815;48.810;44.482;2023-07-08T01:45:42;8.4;;;4.2;;
79346;SDS011;68815;48.810;44.482;2023-07-08T01:48:45;8.9;;;4.2;;
79346;SDS011;68815;48.810;44.482;2023-07-08T01:51:49;8.2;;;4;;
79346;SDS011;68815;48.810;44.482;2023-07-08T01:54:54;7.3;;;4.1;;
79346;SDS011;68815;48.810;44.482;2023-07-08T01:57:56;8.8;;;4.1;;
79346;SDS011;68815;48.810;44.482;2023-07-08T02:00:57;8.9;;;4.1;;
79346;SDS011;68815;48.810;44.482;2023-07-08T02:03:59;7.6;;;4;;
79346;SDS011;68815;48.810;44.482;2023-07-08T02:07:00;9.2;;;4.1;;
79346;SDS011;68815;48.810;44.482;2023-07-08T02:10:02;7.9;;;4;;
79346;SDS011;68815;48.810;44.482;2023-07-08T02:13:04;7.4;;;4;;
79346;SDS011;68815;48.810;44.482;2023-07-08T02:16:06;9.2;;;4.2;;
79346;SDS011;68815;48.810;44.482;2023-07-08T02:19:08;8.5;;;4;;
79346;SDS011;68815;48.810;44.482;2023-07-08T02:22:11;8.7;;;4.3;;
79346;SDS011;68815;48.810;44.482;2023-07-08T02:25:13;8.2;;;4;;
79346;SDS011;68815;48.810;44.482;2023-07-08T02:28:15;8.6;;;4.1;;
79346;SDS011;68815;48.810;44.482;2023-07-08T02:31:17;8.1;;;4.3;;
79346;SDS011;68815;48.810;44.482;2023-07-08T02:34:19;9.2;;;4.4;;
79346;SDS011;68815;48.810;44.482;2023-07-08T02:37:20;11.2;;;4.3;;
79346;SDS011;68815;48.810;44.482;2023-07-08T02:40:22;9.8;;;4.1;;
79346;SDS011;68815;48.810;44.482;2023-07-08T02:43:25;8.6;;;4.3;;
79346;SDS011;68815;48.810;44.482;2023-07-08T02:46:27;9.6;;;4.2;;
79346;SDS011;68815;48.810;44.482;2023-07-08T02:49:29;10.9;;;4.4;;
79346;SDS011;68815;48.810;44.482;2023-07-08T02:52:31;7.8;;;4;;
79346;SDS011;68815;48.810;44.482;2023-07-08T02:55:32;7.9;;;4.2;;
79346;SDS011;68815;48.810;44.482;2023-07-08T02:58:33;9.8;;;4.6;;
79346;SDS011;68815;48.810;44.482;2023-07-08T03:01:35;10.3;;;4.9;;
79346;SDS011;68815;48.810;44.482;2023-07-08T03:04:36;8.4;;;4.4;;
79346;SDS011;68815;48.810;44.482;2023-07-08T03:07:37;9;;;4.1;;
79346;SDS011;68815;48.810;44.482;2023-07-08T03:10:40;7.9;;;4.1;;
79346;SDS011;68815;48.810;44.482;2023-07-08T03:13:41;7.9;;;4.2;;
79346;SDS011;68815;48.810;44.482;2023-07-08T03:16:42;8.8;;;4.6;;
79346;SDS011;68815;48.810;44.482;2023-07-08T03:19:44;10.4;;;4.5;;
79346;SDS011;68815;48.810;44.482;2023-07-08T03:22:45;11.1;;;5;;
79346;SDS011;68815;48.810;44.482;2023-07-08T03:25:47;12.1;;;5.4;;
79346;SDS011;68815;48.810;44.482;2023-07-08T03:28:48;8.6;;;5.1;;
79346;SDS011;68815;48.810;44.482;2023-07-08T03:31:51;9.2;;;5.1;;
79346;SDS011;68815;48.810;44.482;2023-07-08T03:34:52;9.7;;;5.3;;
79346;SDS011;68815;48.810;44.482;2023-07-08T03:37:54;13.3;;;5.6;;
79346;SDS011;68815;48.810;44.482;2023-07-08T03:40:56;9.8;;;4.9;;
79346;SDS011;68815;48.810;44.482;2023-07-08T03:43:57;11.5;;;5.4;;
79346;SDS011;68815;48.810;44.482;2023-07-08T03:46:59;9.8;;;4.9;;
79346;SDS011;68815;48.810;44.482;2023-07-08T03:50:00;11.2;;;5.5;;
79346;SDS011;68815;48.810;44.482;2023-07-08T03:53:03;10.9;;;4.8;;
79346;SDS011;68815;48.810;44.482;2023-07-08T03:56:04;13.2;;;5.3;;
79346;SDS011;68815;48.810;44.482;2023-07-08T03:59:05;14;;;5.8;;
79346;SDS011;68815;48.810;44.482;2023-07-08T04:02:08;11.8;;;5.1;;
79346;SDS011;68815;48.810;44.482;2023-07-08T04:05:13;14.7;;;5.3;;
79346;SDS011;68815;48.810;44.482;2023-07-08T04:08:14;9.2;;;4.7;;
79346;SDS011;68815;48.810;44.482;2023-07-08T04:11:17;11.7;;;4.7;;
79346;SDS011;68815;48.810;44.482;2023-07-08T04:14:19;11.4;;;4.7;;
79346;SDS011;68815;48.810;44.482;2023-07-08T04:17:21;8.9;;;5.2;;
79346;SDS011;68815;48.810;44.482;2023-07-08T04:20:22;9.2;;;4.9;;
79346;SDS011;68815;48.810;44.482;2023-07-08T04:23:24;8.3;;;4.8;;
79346;SDS011;68815;48.810;44.482;2023-07-08T04:26:25;10;;;4.9;;
79346;SDS011;68815;48.810;44.482;2023-07-08T04:29:27;11.9;;;5.1;;
79346;SDS011;68815;48.810;44.482;2023-07-08T04:32:28;10.9;;;5.2;;
79346;SDS011;68815;48.810;44.482;2023-07-08T04:35:29;8.9;;;4.9;;
79346;SDS011;68815;48.810;44.482;2023-07-08T04:38:31;9.3;;;5.1;;
79346;SDS011;68815;48.810;44.482;2023-07-08T04:41:32;10.8;;;5.2;;
79346;SDS011;68815;48.810;44.482;2023-07-08T04:44:36;11;;;4.9;;
79346;SDS011;68815;48.810;44.482;2023-07-08T04:47:37;11.5;;;5.3;;
79346;SDS011;68815;48.810;44.482;2023-07-08T04:50:39;15.9;;;5.6;;
79346;SDS011;68815;48.810;44.482;2023-07-08T04:53:41;13;;;5.6;;
79346;SDS011;68815;48.810;44.482;2023-07-08T04:56:43;15.5;;;5.8;;
79346;SDS011;68815;48.810;44.482;2023-07-08T04:59:48;19.9;;;6.6;;
79346;SDS011;68815;48.810;44.482;2023-07-08T05:02:49;16.3;;;5.7;;
79346;SDS011;68815;48.810;44.482;2023-07-08T05:05:51;15.6;;;6.3;;
79346;SDS011;68815;48.810;44.482;2023-07-08T05:08:52;21.1;;;6.7;;
79346;SDS011;68815;48.810;44.482;2023-07-08T05:11:54;14.3;;;6.5;;
79346;SDS011;68815;48.810;44.482;2023-07-08T05:14:55;14.4;;;6.1;;
79346;SDS011;68815;48.810;44.482;2023-07-08T05:17:58;15.1;;;6.6;;
79346;SDS011;68815;48.810;44.482;2023-07-08T05:20:59;14.2;;;5.8;;
79346;SDS011;68815;48.810;44.482;2023-07-08T05:24:03;16.1;;;5.7;;
79346;SDS011;68815;48.810;44.482;2023-07-08T05:27:05;15.1;;;5.8;;
79346;SDS011;68815;48.810;44.482;2023-07-08T05:30:08;12.8;;;5.6;;
79346;SDS011;68815;48.810;44.482;2023-07-08T05:33:14;15.2;;;5.2;;
79346;SDS011;68815;48.810;44.482;2023-07-08T05:36:16;11.3;;;5;;
79346;SDS011;68815;48.810;44.482;2023-07-08T05:39:25;11.8;;;5.4;;
79346;SDS011;68815;48.810;44.482;2023-07-08T05:42:27;10.4;;;5.6;;
79346;SDS011;68815;48.810;44.482;2023-07-08T05:45:29;16.7;;;11.1;;
79346;SDS011;68815;48.810;44.482;2023-07-08T05:48:30;13.6;;;6.7;;
79346;SDS011;68815;48.810;44.482;2023-07-08T05:51:33;12.1;;;5.3;;
79346;SDS011;68815;48.810;44.482;2023-07-08T05:54:35;10.5;;;5.1;;
79346;SDS011;68815;48.810;44.482;2023-07-08T05:57:36;9.7;;;4.9;;
79346;SDS011;68815;48.810;44.482;2023-07-08T06:00:38;17.1;;;5.8;;
79346;SDS011;68815;48.810;44.482;2023-07-08T06:03:40;10.3;;;5.2;;
79346;SDS011;68815;48.810;44.482;2023-07-08T06:06:41;12.1;;;5.2;;
79346;SDS011;68815;48.810;44.482;2023-07-08T06:09:43;11.3;;;5.2;;
79346;SDS011;68815;48.810;44.482;2023-07-08T06:12:45;12.8;;;5.2;;
79346;SDS011;68815;48.810;44.482;2023-07-08T06:15:46;12.1;;;5.1;;
79346;SDS011;68815;48.810;44.482;2023-07-08T06:18:48;10.3;;;5.2;;
79346;SDS011;68815;48.810;44.482;2023-07-08T06:21:49;12.5;;;5.3;;
79346;SDS011;68815;48.810;44.482;2023-07-08T06:24:50;13.1;;;5.5;;
79346;SDS011;68815;48.810;44.482;2023-07-08T06:27:52;13.1;;;5;;
79346;SDS011;68815;48.810;44.482;2023-07-08T06:30:53;10;;;5;;
79346;SDS011;68815;48.810;44.482;2023-07-08T06:33:55;11.9;;;5.2;;
79346;SDS011;68815;48.810;44.482;2023-07-08T06:36:57;14;;;5.3;;
79346;SDS011;68815;48.810;44.482;2023-07-08T06:39:59;13;;;5;;
79346;SDS011;68815;48.810;44.482;2023-07-08T06:43:02;9.6;;;4.7;;
79346;SDS011;68815;48.810;44.482;2023-07-08T06:46:04;12.5;;;5;;
79346;SDS011;68815;48.810;44.482;2023-07-08T06:49:05;10.4;;;5.2;;
79346;SDS011;68815;48.810;44.482;2023-07-08T06:52:07;9.1;;;5;;
79346;SDS011;68815;48.810;44.482;2023-07-08T06:55:09;10.5;;;4.4;;
79346;SDS011;68815;48.810;44.482;2023-07-08T06:58:12;12.4;;;4.9;;
79346;SDS011;68815;48.810;44.482;2023-07-08T07:01:13;19.6;;;5.8;;
79346;SDS011;68815;48.810;44.482;2023-07-08T07:04:15;11;;;5.1;;
79346;SDS011;68815;48.810;44.482;2023-07-08T07:07:16;12.1;;;5.3;;
79346;SDS011;68815;48.810;44.482;2023-07-08T07:10:18;11.9;;;5.7;;
79346;SDS011;68815;48.810;44.482;2023-07-08T07:13:19;14.9;;;5.6;;
79346;SDS011;68815;48.810;44.482;2023-07-08T07:16:20;9.9;;;4.9;;
79346;SDS011;68815;48.810;44.482;2023-07-08T07:19:22;9.7;;;5.3;;
79346;SDS011;68815;48.810;44.482;2023-07-08T07:22:23;14.7;;;5.7;;
79346;SDS011;68815;48.810;44.482;2023-07-08T07:25:25;11.8;;;5.3;;
79346;SDS011;68815;48.810;44.482;2023-07-08T07:28:27;11.4;;;5.5;;
79346;SDS011;68815;48.810;44.482;2023-07-08T07:31:28;10.6;;;5.5;;
79346;SDS011;68815;48.810;44.482;2023-07-08T07:34:29;18.5;;;5.7;;
79346;SDS011;68815;48.810;44.482;2023-07-08T07:37:31;11;;;5.6;;
79346;SDS011;68815;48.810;44.482;2023-07-08T07:40:32;16.1;;;5.9;;
79346;SDS011;68815;48.810;44.482;2023-07-08T07:43:34;11.2;;;5.4;;
79346;SDS011;68815;48.810;44.482;2023-07-08T07:46:35;11.6;;;5.7;;
79346;SDS011;68815;48.810;44.482;2023-07-08T07:49:37;12.2;;;5.7;;
79346;SDS011;68815;48.810;44.482;2023-07-08T07:52:40;15;;;6.4;;
79346;SDS011;68815;48.810;44.482;2023-07-08T07:55:41;13.4;;;6.1;;
79346;SDS011;68815;48.810;44.482;2023-07-08T07:58:43;11.4;;;5.4;;
79346;SDS011;68815;48.810;44.482;2023-07-08T08:01:44;11.1;;;5.3;;
79346;SDS011;68815;48.810;44.482;2023-07-08T08:04:45;12.5;;;5.6;;
79346;SDS011;68815;48.810;44.482;2023-07-08T08:07:47;14.1;;;6.5;;
79346;SDS011;68815;48.810;44.482;2023-07-08T08:10:48;13.4;;;6.5;;
79346;SDS011;68815;48.810;44.482;2023-07-08T08:13:50;13.1;;;7;;
79346;SDS011;68815;48.810;44.482;2023-07-08T08:16:51;12.8;;;6.1;;
79346;SDS011;68815;48.810;44.482;2023-07-08T08:19:52;10.6;;;5.9;;
79346;SDS011;68815;48.810;44.482;2023-07-08T08:22:54;13.3;;;6;;
79346;SDS011;68815;48.810;44.482;2023-07-08T08:25:56;17.9;;;6.7;;
79346;SDS011;68815;48.810;44.482;2023-07-08T08:28:57;12;;;6.4;;
79346;SDS011;68815;48.810;44.482;2023-07-08T08:31:58;11.1;;;6.6;;
79346;SDS011;68815;48.810;44.482;2023-07-08T08:35:00;11.3;;;6.4;;
79346;SDS011;68815;48.810;44.482;2023-07-08T08:38:01;23.8;;;7.3;;
79346;SDS011;68815;48.810;44.482;2023-07-08T08:41:03;11.7;;;6.3;;
79346;SDS011;68815;48.810;44.482;2023-07-08T08:44:05;11.9;;;6.2;;
79346;SDS011;68815;48.810;44.482;2023-07-08T08:47:13;11.4;;;6.5;;
79346;SDS011;68815;48.810;44.482;2023-07-08T08:50:28;11;;;6.9;;
79346;SDS011;68815;48.810;44.482;2023-07-08T08:53:32;11.2;;;6.8;;
79346;SDS011;68815;48.810;44.482;2023-07-08T08:56:34;13.5;;;7.4;;
79346;SDS011;68815;48.810;44.482;2023-07-08T08:59:42;13;;;7.3;;
79346;SDS011;68815;48.810;44.482;2023-07-08T09:02:49;12.6;;;7.3;;
79346;SDS011;68815;48.810;44.482;2023-07-08T09:05:55;11.8;;;6.7;;
79346;SDS011;68815;48.810;44.482;2023-07-08T09:09:02;9.4;;;5.8;;
79346;SDS011;68815;48.810;44.482;2023-07-08T09:12:10;11.2;;;6.3;;
79346;SDS011;68815;48.810;44.482;2023-07-08T09:15:18;9.5;;;6.4;;
79346;SDS011;68815;48.810;44.482;2023-07-08T09:18:20;10.6;;;5.9;;
79346;SDS011;68815;48.810;44.482;2023-07-08T09:21:30;11.7;;;6.1;;
79346;SDS011;68815;48.810;44.482;2023-07-08T09:24:40;9.9;;;6;;
79346;SDS011;68815;48.810;44.482;2023-07-08T09:27:45;10.9;;;5.9;;
79346;SDS011;68815;48.810;44.482;2023-07-08T09:30:48;8.6;;;5.7;;
79346;SDS011;68815;48.810;44.482;2023-07-08T09:34:04;10.9;;;6.2;;
79346;SDS011;68815;48.810;44.482;2023-07-08T09:40:28;9.1;;;4.7;;
79346;SDS011;68815;48.810;44.482;2023-07-08T09:43:34;8.6;;;4.5;;
79346;SDS011;68815;48.810;44.482;2023-07-08T09:46:36;7.8;;;4;;
79346;SDS011;68815;48.810;44.482;2023-07-08T09:49:38;6.7;;;4;;
79346;SDS011;68815;48.810;44.482;2023-07-08T09:52:40;6.8;;;3.6;;
79346;SDS011;68815;48.810;44.482;2023-07-08T09:55:42;8.9;;;3.9;;
79346;SDS011;68815;48.810;44.482;2023-07-08T09:58:44;6.5;;;3.8;;
79346;SDS011;68815;48.810;44.482;2023-07-08T10:01:46;7;;;3.9;;
79346;SDS011;68815;48.810;44.482;2023-07-08T10:04:50;7.7;;;3.9;;
79346;SDS011;68815;48.810;44.482;2023-07-08T10:07:54;7.4;;;4;;
79346;SDS011;68815;48.810;44.482;2023-07-08T10:10:58;10.8;;;4;;
79346;SDS011;68815;48.810;44.482;2023-07-08T10:14:03;9.7;;;3.7;;
79346;SDS011;68815;48.810;44.482;2023-07-08T10:17:09;8.2;;;4;;
79346;SDS011;68815;48.810;44.482;2023-07-08T10:20:15;8.5;;;3.9;;
79346;SDS011;68815;48.810;44.482;2023-07-08T10:23:20;8;;;4;;
79346;SDS011;68815;48.810;44.482;2023-07-08T10:26:27;9.1;;;4.2;;
79346;SDS011;68815;48.810;44.482;2023-07-08T10:29:31;8.1;;;4.1;;
79346;SDS011;68815;48.810;44.482;2023-07-08T10:32:44;7.7;;;4;;
79346;SDS011;68815;48.810;44.482;2023-07-08T10:35:58;9.6;;;4;;
79346;SDS011;68815;48.810;44.482;2023-07-08T10:39:15;7.8;;;3.8;;
79346;SDS011;68815;48.810;44.482;2023-07-08T10:42:27;7.1;;;3.7;;
79346;SDS011;68815;48.810;44.482;2023-07-08T10:45:38;8.6;;;4.1;;
79346;SDS011;68815;48.810;44.482;2023-07-08T10:48:51;7.8;;;3.8;;
79346;SDS011;68815;48.810;44.482;2023-07-08T10:52:07;9.3;;;4;;
79346;SDS011;68815;48.810;44.482;2023-07-08T10:55:28;7.8;;;3.7;;
79346;SDS011;68815;48.810;44.482;2023-07-08T10:58:46;9;;;3.6;;
79346;SDS011;68815;48.810;44.482;2023-07-08T11:02:00;13.4;;;4.4;;
79346;SDS011;68815;48.810;44.482;2023-07-08T11:05:13;9;;;3.8;;
79346;SDS011;68815;48.810;44.482;2023-07-08T11:08:23;8.9;;;3.7;;
79346;SDS011;68815;48.810;44.482;2023-07-08T11:11:30;10.6;;;3.8;;
79346;SDS011;68815;48.810;44.482;2023-07-08T11:14:40;7.7;;;3.9;;
79346;SDS011;68815;48.810;44.482;2023-07-08T11:17:48;8.8;;;3.6;;
79346;SDS011;68815;48.810;44.482;2023-07-08T11:20:55;13.9;;;4;;
79346;SDS011;68815;48.810;44.482;2023-07-08T11:24:02;8.9;;;3.7;;
79346;SDS011;68815;48.810;44.482;2023-07-08T11:27:14;12.3;;;3.9;;
79346;SDS011;68815;48.810;44.482;2023-07-08T11:30:20;11.1;;;3.8;;
79346;SDS011;68815;48.810;44.482;2023-07-08T11:33:24;8.4;;;3.6;;
79346;SDS011;68815;48.810;44.482;2023-07-08T11:36:26;11.3;;;4.1;;
79346;SDS011;68815;48.810;44.482;2023-07-08T11:39:32;11;;;4.2;;
79346;SDS011;68815;48.810;44.482;2023-07-08T11:42:37;9.2;;;3.7;;
79346;SDS011;68815;48.810;44.482;2023-07-08T11:45:40;10.9;;;4.2;;
79346;SDS011;68815;48.810;44.482;2023-07-08T11:48:45;9.4;;;4.2;;
79346;SDS011;68815;48.810;44.482;2023-07-08T11:51:49;10.6;;;4;;
79346;SDS011;68815;48.810;44.482;2023-07-08T11:55:03;14;;;4.2;;
79346;SDS011;68815;48.810;44.482;2023-07-08T11:58:19;9.6;;;3.8;;
79346;SDS011;68815;48.810;44.482;2023-07-08T12:01:25;9.4;;;3.6;;
79346;SDS011;68815;48.810;44.482;2023-07-08T12:04:30;12.4;;;3.8;;
79346;SDS011;68815;48.810;44.482;2023-07-08T12:07:36;10.3;;;3.9;;
79346;SDS011;68815;48.810;44.482;2023-07-08T12:10:45;9.6;;;3.7;;
79346;SDS011;68815;48.810;44.482;2023-07-08T12:13:49;9.3;;;4;;
79346;SDS011;68815;48.810;44.482;2023-07-08T12:16:51;9.1;;;3.7;;
79346;SDS011;68815;48.810;44.482;2023-07-08T12:19:53;9.7;;;4;;
79346;SDS011;68815;48.810;44.482;2023-07-08T12:22:58;10.8;;;3.9;;
79346;SDS011;68815;48.810;44.482;2023-07-08T12:26:00;14.4;;;4.1;;
79346;SDS011;68815;48.810;44.482;2023-07-08T12:29:01;9.7;;;4.2;;
79346;SDS011;68815;48.810;44.482;2023-07-08T12:32:08;9.2;;;4.2;;
79346;SDS011;68815;48.810;44.482;2023-07-08T12:35:17;8.4;;;4.3;;
79346;SDS011;68815;48.810;44.482;2023-07-08T12:38:23;8.7;;;3.8;;
79346;SDS011;68815;48.810;44.482;2023-07-08T12:41:30;8.6;;;3.7;;
79346;SDS011;68815;48.810;44.482;2023-07-08T12:44:33;9.9;;;4.1;;
79346;SDS011;68815;48.810;44.482;2023-07-08T12:47:35;8.3;;;4.2;;
79346;SDS011;68815;48.810;44.482;2023-07-08T12:50:36;10.5;;;3.9;;
79346;SDS011;68815;48.810;44.482;2023-07-08T12:53:37;9.5;;;4.3;;
79346;SDS011;68815;48.810;44.482;2023-07-08T12:56:39;8.9;;;4.2;;
79346;SDS011;68815;48.810;44.482;2023-07-08T12:59:44;9.1;;;4.4;;
79346;SDS011;68815;48.810;44.482;2023-07-08T13:02:46;10.1;;;4.6;;
79346;SDS011;68815;48.810;44.482;2023-07-08T13:05:51;10.7;;;4.6;;
79346;SDS011;68815;48.810;44.482;2023-07-08T13:08:54;11.3;;;4.8;;
79346;SDS011;68815;48.810;44.482;2023-07-08T13:11:58;12;;;4.8;;
79346;SDS011;68815;48.810;44.482;2023-07-08T13:15:05;10.1;;;4.8;;
79346;SDS011;68815;48.810;44.482;2023-07-08T13:18:14;11;;;5;;
79346;SDS011;68815;48.810;44.482;2023-07-08T13:21:17;9.4;;;4.6;;
79346;SDS011;68815;48.810;44.482;2023-07-08T13:24:21;9.8;;;4.6;;
79346;SDS011;68815;48.810;44.482;2023-07-08T13:27:23;11.2;;;3.7;;
79346;SDS011;68815;48.810;44.482;2023-07-08T13:30:27;8.6;;;3.2;;
79346;SDS011;68815;48.810;44.482;2023-07-08T13:33:31;11.4;;;3.5;;
79346;SDS011;68815;48.810;44.482;2023-07-08T13:36:35;13.3;;;3.9;;
79346;SDS011;68815;48.810;44.482;2023-07-08T13:39:38;11.2;;;3.4;;
79346;SDS011;68815;48.810;44.482;2023-07-08T13:42:46;11.8;;;4.1;;
79346;SDS011;68815;48.810;44.482;2023-07-08T13:45:48;9.5;;;3.6;;
79346;SDS011;68815;48.810;44.482;2023-07-08T13:48:49;11.6;;;3.5;;
79346;SDS011;68815;48.810;44.482;2023-07-08T13:51:55;9.1;;;3.7;;
79346;SDS011;68815;48.810;44.482;2023-07-08T13:55:09;10.1;;;2.9;;
79346;SDS011;68815;48.810;44.482;2023-07-08T13:58:17;9.8;;;3;;
79346;SDS011;68815;48.810;44.482;2023-07-08T14:01:20;10.9;;;3.3;;
79346;SDS011;68815;48.810;44.482;2023-07-08T14:04:24;7.4;;;2.9;;
79346;SDS011;68815;48.810;44.482;2023-07-08T14:07:31;11.5;;;3.2;;
79346;SDS011;68815;48.810;44.482;2023-07-08T14:10:34;12.4;;;3.3;;
79346;SDS011;68815;48.810;44.482;2023-07-08T14:13:35;11.4;;;3.4;;
79346;SDS011;68815;48.810;44.482;2023-07-08T14:16:37;10.2;;;3.4;;
79346;SDS011;68815;48.810;44.482;2023-07-08T14:19:41;10;;;3.1;;
79346;SDS011;68815;48.810;44.482;2023-07-08T14:22:42;10.2;;;3.5;;
79346;SDS011;68815;48.810;44.482;2023-07-08T14:25:44;11.8;;;3.2;;
79346;SDS011;68815;48.810;44.482;2023-07-08T14:28:45;8.9;;;3.5;;
79346;SDS011;68815;48.810;44.482;2023-07-08T14:31:47;13.1;;;3.9;;
79346;SDS011;68815;48.810;44.482;2023-07-08T14:34:49;9.3;;;3.4;;
79346;SDS011;68815;48.810;44.482;2023-07-08T14:37:52;11.1;;;3.4;;
79346;SDS011;68815;48.810;44.482;2023-07-08T14:40:53;8.7;;;3.6;;
79346;SDS011;68815;48.810;44.482;2023-07-08T14:43:55;10.3;;;3.4;;
79346;SDS011;68815;48.810;44.482;2023-07-08T14:46:56;11;;;3.2;;
79346;SDS011;68815;48.810;44.482;2023-07-08T14:49:58;10.8;;;3.3;;
79346;SDS011;68815;48.810;44.482;2023-07-08T14:52:59;10.7;;;3.1;;
79346;SDS011;68815;48.810;44.482;2023-07-08T14:56:02;11.8;;;3.5;;
79346;SDS011;68815;48.810;44.482;2023-07-08T14:59:14;10.8;;;2.9;;
79346;SDS011;68815;48.810;44.482;2023-07-08T15:02:19;15.8;;;3.3;;
79346;SDS011;68815;48.810;44.482;2023-07-08T15:05:23;12.6;;;3.2;;
79346;SDS011;68815;48.810;44.482;2023-07-08T15:08:26;10.3;;;3.3;;
79346;SDS011;68815;48.810;44.482;2023-07-08T15:11:27;12;;;3.3;;
79346;SDS011;68815;48.810;44.482;2023-07-08T15:14:29;9.3;;;3.7;;
79346;SDS011;68815;48.810;44.482;2023-07-08T15:17:30;16.6;;;3.6;;
79346;SDS011;68815;48.810;44.482;2023-07-08T15:20:32;7.5;;;2.8;;
79346;SDS011;68815;48.810;44.482;2023-07-08T15:23:33;9.4;;;3.1;;
79346;SDS011;68815;48.810;44.482;2023-07-08T15:26:35;12.2;;;3.2;;
79346;SDS011;68815;48.810;44.482;2023-07-08T15:29:36;13.3;;;4;;
79346;SDS011;68815;48.810;44.482;2023-07-08T15:32:37;16.4;;;4.4;;
79346;SDS011;68815;48.810;44.482;2023-07-08T15:35:39;14.9;;;4.9;;
79346;SDS011;68815;48.810;44.482;2023-07-08T15:38:41;13.6;;;4.1;;
79346;SDS011;68815;48.810;44.482;2023-07-08T15:41:43;13.5;;;3.4;;
79346;SDS011;68815;48.810;44.482;2023-07-08T15:44:44;12.9;;;3.5;;
79346;SDS011;68815;48.810;44.482;2023-07-08T15:47:46;14.7;;;2.9;;
79346;SDS011;68815;48.810;44.482;2023-07-08T15:50:47;13.1;;;3.4;;
79346;SDS011;68815;48.810;44.482;2023-07-08T15:53:49;14.5;;;3.2;;
79346;SDS011;68815;48.810;44.482;2023-07-08T15:56:51;16.4;;;3;;
79346;SDS011;68815;48.810;44.482;2023-07-08T15:59:55;11.8;;;2.9;;
79346;SDS011;68815;48.810;44.482;2023-07-08T16:02:57;10.1;;;3.2;;
79346;SDS011;68815;48.810;44.482;2023-07-08T16:06:00;13.6;;;3.7;;
79346;SDS011;68815;48.810;44.482;2023-07-08T16:09:01;14.6;;;3.4;;
79346;SDS011;68815;48.810;44.482;2023-07-08T16:12:05;14.5;;;3.6;;
79346;SDS011;68815;48.810;44.482;2023-07-08T16:15:13;13.8;;;4.8;;
79346;SDS011;68815;48.810;44.482;2023-07-08T16:18:15;15.1;;;4;;
79346;SDS011;68815;48.810;44.482;2023-07-08T16:21:17;16.2;;;3.9;;
79346;SDS011;68815;48.810;44.482;2023-07-08T16:24:18;10.1;;;3.2;;
79346;SDS011;68815;48.810;44.482;2023-07-08T16:27:21;16.3;;;3.6;;
79346;SDS011;68815;48.810;44.482;2023-07-08T16:30:22;24.6;;;3.6;;
79346;SDS011;68815;48.810;44.482;2023-07-08T16:33:24;19;;;3.6;;
79346;SDS011;68815;48.810;44.482;2023-07-08T16:36:26;15.3;;;3.6;;
79346;SDS011;68815;48.810;44.482;2023-07-08T16:39:29;15.5;;;3.2;;
79346;SDS011;68815;48.810;44.482;2023-07-08T16:42:30;17.1;;;3.3;;
79346;SDS011;68815;48.810;44.482;2023-07-08T16:45:31;22.6;;;4;;
79346;SDS011;68815;48.810;44.482;2023-07-08T16:48:33;55.2;;;6;;
79346;SDS011;68815;48.810;44.482;2023-07-08T16:51:34;27;;;4.1;;
79346;SDS011;68815;48.810;44.482;2023-07-08T16:54:36;30.1;;;4.3;;
79346;SDS011;68815;48.810;44.482;2023-07-08T16:57:38;37.5;;;4.4;;
79346;SDS011;68815;48.810;44.482;2023-07-08T17:00:41;19.4;;;3.4;;
79346;SDS011;68815;48.810;44.482;2023-07-08T17:03:44;21.2;;;3.2;;
79346;SDS011;68815;48.810;44.482;2023-07-08T17:06:46;30.9;;;4.2;;
79346;SDS011;68815;48.810;44.482;2023-07-08T17:09:47;19.8;;;4.3;;
79346;SDS011;68815;48.810;44.482;2023-07-08T17:12:48;16.4;;;4.5;;
79346;SDS011;68815;48.810;44.482;2023-07-08T17:15:50;17.7;;;3.9;;
79346;SDS011;68815;48.810;44.482;2023-07-08T17:18:53;18.5;;;4.4;;
79346;SDS011;68815;48.810;44.482;2023-07-08T17:21:56;17.6;;;3.9;;
79346;SDS011;68815;48.810;44.482;2023-07-08T17:24:57;15.7;;;3.9;;
79346;SDS011;68815;48.810;44.482;2023-07-08T17:27:58;14.9;;;4.2;;
79346;SDS011;68815;48.810;44.482;2023-07-08T17:31:00;11.9;;;4.3;;
79346;SDS011;68815;48.810;44.482;2023-07-08T17:34:02;14.4;;;4.4;;
79346;SDS011;68815;48.810;44.482;2023-07-08T17:37:07;14.1;;;4.4;;
79346;SDS011;68815;48.810;44.482;2023-07-08T17:40:13;17.1;;;4.6;;
79346;SDS011;68815;48.810;44.482;2023-07-08T17:43:16;13;;;5.9;;
79346;SDS011;68815;48.810;44.482;2023-07-08T17:46:19;14.5;;;6.2;;
79346;SDS011;68815;48.810;44.482;2023-07-08T17:49:24;16.5;;;7.2;;
79346;SDS011;68815;48.810;44.482;2023-07-08T17:52:26;15.2;;;7.3;;
79346;SDS011;68815;48.810;44.482;2023-07-08T17:55:27;14.3;;;6.3;;
79346;SDS011;68815;48.810;44.482;2023-07-08T17:58:28;14.6;;;5.5;;
79346;SDS011;68815;48.810;44.482;2023-07-08T18:01:33;14.5;;;6;;
79346;SDS011;68815;48.810;44.482;2023-07-08T18:04:35;11.6;;;4.6;;
79346;SDS011;68815;48.810;44.482;2023-07-08T18:07:36;13.4;;;4;;
79346;SDS011;68815;48.810;44.482;2023-07-08T18:10:38;13.3;;;4.6;;
79346;SDS011;68815;48.810;44.482;2023-07-08T18:13:39;14.1;;;4.6;;
79346;SDS011;68815;48.810;44.482;2023-07-08T18:16:42;15.2;;;4.8;;
79346;SDS011;68815;48.810;44.482;2023-07-08T18:19:43;20.2;;;5.8;;
79346;SDS011;68815;48.810;44.482;2023-07-08T18:22:45;18.8;;;6.4;;
79346;SDS011;68815;48.810;44.482;2023-07-08T18:25:49;16.8;;;7.4;;
79346;SDS011;68815;48.810;44.482;2023-07-08T18:28:51;22.8;;;8.4;;
79346;SDS011;68815;48.810;44.482;2023-07-08T18:31:52;23;;;8.7;;
79346;SDS011;68815;48.810;44.482;2023-07-08T18:34:54;19.2;;;7.3;;
79346;SDS011;68815;48.810;44.482;2023-07-08T18:37:55;17.2;;;6.2;;
79346;SDS011;68815;48.810;44.482;2023-07-08T18:40:57;13.9;;;5.3;;
79346;SDS011;68815;48.810;44.482;2023-07-08T18:43:59;14.4;;;5.2;;